sensor_id;sensor_type;location;lat;lon;timestamp;pressure;altitude;pressure_sealevel;temperature
15607;BMP180;7865;50.918;4.510;2023-07-13T00:03:19;100962.00;;;16.00
15607;BMP180;7865;50.918;4.510;2023-07-13T00:08:21;100966.00;;;16.00
15607;BMP180;7865;50.918;4.510;2023-07-13T00:13:22;100966.00;;;15.90
15607;BMP180;7865;50.918;4.510;2023-07-13T00:18:24;100967.00;;;15.90
15607;BMP180;7865;50.918;4.510;2023-07-13T00:23:25;100969.00;;;15.80
15607;BMP180;7865;50.918;4.510;2023-07-13T00:28:27;100970.00;;;15.80
15607;BMP180;7865;50.918;4.510;2023-07-13T00:33:28;100969.00;;;15.70
15607;BMP180;7865;50.918;4.510;2023-07-13T00:38:31;100977.00;;;15.70
15607;BMP180;7865;50.918;4.510;2023-07-13T00:43:33;100966.00;;;15.60
15607;BMP180;7865;50.918;4.510;2023-07-13T00:48:35;100962.00;;;15.60
15607;BMP180;7865;50.918;4.510;2023-07-13T00:53:37;100971.00;;;15.50
15607;BMP180;7865;50.918;4.510;2023-07-13T00:58:41;100979.00;;;15.50
15607;BMP180;7865;50.918;4.510;2023-07-13T01:03:43;100988.00;;;15.50
15607;BMP180;7865;50.918;4.510;2023-07-13T01:08:45;100999.00;;;15.50
15607;BMP180;7865;50.918;4.510;2023-07-13T01:13:46;101002.00;;;15.40
15607;BMP180;7865;50.918;4.510;2023-07-13T01:18:48;101003.00;;;15.40
15607;BMP180;7865;50.918;4.510;2023-07-13T01:23:51;101011.00;;;15.40
15607;BMP180;7865;50.918;4.510;2023-07-13T01:28:52;101012.00;;;15.30
15607;BMP180;7865;50.918;4.510;2023-07-13T01:33:54;101019.00;;;15.30
15607;BMP180;7865;50.918;4.510;2023-07-13T01:38:56;101016.00;;;15.20
15607;BMP180;7865;50.918;4.510;2023-07-13T01:43:57;101024.00;;;15.10
15607;BMP180;7865;50.918;4.510;2023-07-13T01:48:58;101027.00;;;15.10
15607;BMP180;7865;50.918;4.510;2023-07-13T01:54:00;101022.00;;;15.10
15607;BMP180;7865;50.918;4.510;2023-07-13T01:59:01;101021.00;;;15.10
15607;BMP180;7865;50.918;4.510;2023-07-13T02:04:03;101030.00;;;15.00
15607;BMP180;7865;50.918;4.510;2023-07-13T02:09:07;101034.00;;;15.00
15607;BMP180;7865;50.918;4.510;2023-07-13T02:14:08;101039.00;;;14.90
15607;BMP180;7865;50.918;4.510;2023-07-13T02:19:10;101028.00;;;14.90
15607;BMP180;7865;50.918;4.510;2023-07-13T02:24:12;101026.00;;;14.90
15607;BMP180;7865;50.918;4.510;2023-07-13T02:29:18;101025.00;;;14.80
15607;BMP180;7865;50.918;4.510;2023-07-13T02:34:19;101034.00;;;14.80
15607;BMP180;7865;50.918;4.510;2023-07-13T02:39:21;101032.00;;;14.80
15607;BMP180;7865;50.918;4.510;2023-07-13T02:44:22;101029.00;;;14.70
15607;BMP180;7865;50.918;4.510;2023-07-13T02:49:24;101036.00;;;14.80
15607;BMP180;7865;50.918;4.510;2023-07-13T02:54:25;101043.00;;;14.90
15607;BMP180;7865;50.918;4.510;2023-07-13T02:59:27;101042.00;;;14.90
15607;BMP180;7865;50.918;4.510;2023-07-13T03:04:29;101037.00;;;14.90
15607;BMP180;7865;50.918;4.510;2023-07-13T03:09:31;101042.00;;;14.90
15607;BMP180;7865;50.918;4.510;2023-07-13T03:14:36;101045.00;;;14.90
15607;BMP180;7865;50.918;4.510;2023-07-13T03:19:40;101049.00;;;14.90
15607;BMP180;7865;50.918;4.510;2023-07-13T03:24:41;101056.00;;;14.90
15607;BMP180;7865;50.918;4.510;2023-07-13T03:29:43;101054.00;;;15.00
15607;BMP180;7865;50.918;4.510;2023-07-13T03:34:46;101048.00;;;14.90
15607;BMP180;7865;50.918;4.510;2023-07-13T03:39:48;101057.00;;;14.90
15607;BMP180;7865;50.918;4.510;2023-07-13T03:44:51;101057.00;;;15.10
15607;BMP180;7865;50.918;4.510;2023-07-13T03:49:54;101073.00;;;15.30
15607;BMP180;7865;50.918;4.510;2023-07-13T03:54:56;101082.00;;;15.40
15607;BMP180;7865;50.918;4.510;2023-07-13T03:59:57;101089.00;;;15.60
15607;BMP180;7865;50.918;4.510;2023-07-13T04:04:59;101091.00;;;15.70
15607;BMP180;7865;50.918;4.510;2023-07-13T04:10:00;101089.00;;;15.80
15607;BMP180;7865;50.918;4.510;2023-07-13T04:15:02;101096.00;;;15.80
15607;BMP180;7865;50.918;4.510;2023-07-13T04:20:04;101099.00;;;15.90
15607;BMP180;7865;50.918;4.510;2023-07-13T04:25:06;101105.00;;;15.90
15607;BMP180;7865;50.918;4.510;2023-07-13T04:30:08;101106.00;;;16.00
15607;BMP180;7865;50.918;4.510;2023-07-13T04:35:09;101115.00;;;16.10
15607;BMP180;7865;50.918;4.510;2023-07-13T04:40:11;101124.00;;;16.20
15607;BMP180;7865;50.918;4.510;2023-07-13T04:45:14;101125.00;;;16.30
15607;BMP180;7865;50.918;4.510;2023-07-13T04:50:16;101130.00;;;16.40
15607;BMP180;7865;50.918;4.510;2023-07-13T04:55:21;101141.00;;;16.40
15607;BMP180;7865;50.918;4.510;2023-07-13T05:00:23;101126.00;;;16.50
15607;BMP180;7865;50.918;4.510;2023-07-13T05:05:25;101138.00;;;16.70
15607;BMP180;7865;50.918;4.510;2023-07-13T05:10:28;101143.00;;;16.90
15607;BMP180;7865;50.918;4.510;2023-07-13T05:15:29;101142.00;;;17.00
15607;BMP180;7865;50.918;4.510;2023-07-13T05:20:30;101154.00;;;17.10
15607;BMP180;7865;50.918;4.510;2023-07-13T05:25:31;101151.00;;;17.10
15607;BMP180;7865;50.918;4.510;2023-07-13T05:30:33;101153.00;;;17.20
15607;BMP180;7865;50.918;4.510;2023-07-13T05:35:34;101146.00;;;17.30
15607;BMP180;7865;50.918;4.510;2023-07-13T05:40:36;101162.00;;;17.60
15607;BMP180;7865;50.918;4.510;2023-07-13T05:45:37;101161.00;;;17.80
15607;BMP180;7865;50.918;4.510;2023-07-13T05:50:38;101162.00;;;17.90
15607;BMP180;7865;50.918;4.510;2023-07-13T05:55:44;101166.00;;;18.00
15607;BMP180;7865;50.918;4.510;2023-07-13T06:00:48;101172.00;;;18.00
15607;BMP180;7865;50.918;4.510;2023-07-13T06:05:50;101169.00;;;18.10
15607;BMP180;7865;50.918;4.510;2023-07-13T06:10:51;101178.00;;;18.20
15607;BMP180;7865;50.918;4.510;2023-07-13T06:15:53;101185.00;;;18.30
15607;BMP180;7865;50.918;4.510;2023-07-13T06:20:54;101190.00;;;18.40
15607;BMP180;7865;50.918;4.510;2023-07-13T06:25:56;101199.00;;;18.50
15607;BMP180;7865;50.918;4.510;2023-07-13T06:30:58;101194.00;;;18.80
15607;BMP180;7865;50.918;4.510;2023-07-13T06:36:01;101194.00;;;19.00
15607;BMP180;7865;50.918;4.510;2023-07-13T06:41:04;101201.00;;;19.20
15607;BMP180;7865;50.918;4.510;2023-07-13T06:46:06;101207.00;;;19.50
15607;BMP180;7865;50.918;4.510;2023-07-13T06:51:08;101202.00;;;19.80
15607;BMP180;7865;50.918;4.510;2023-07-13T06:56:10;101202.00;;;20.10
15607;BMP180;7865;50.918;4.510;2023-07-13T07:01:12;101206.00;;;20.50
15607;BMP180;7865;50.918;4.510;2023-07-13T07:06:15;101201.00;;;20.90
15607;BMP180;7865;50.918;4.510;2023-07-13T07:11:20;101199.00;;;21.20
15607;BMP180;7865;50.918;4.510;2023-07-13T07:16:24;101200.00;;;21.50
15607;BMP180;7865;50.918;4.510;2023-07-13T07:21:26;101209.00;;;21.50
15607;BMP180;7865;50.918;4.510;2023-07-13T07:26:28;101204.00;;;21.70
15607;BMP180;7865;50.918;4.510;2023-07-13T07:31:49;101202.00;;;21.90
15607;BMP180;7865;50.918;4.510;2023-07-13T07:37:11;101208.00;;;22.00
15607;BMP180;7865;50.918;4.510;2023-07-13T07:42:16;101211.00;;;21.90
15607;BMP180;7865;50.918;4.510;2023-07-13T07:47:17;101211.00;;;21.80
15607;BMP180;7865;50.918;4.510;2023-07-13T07:52:19;101207.00;;;22.20
15607;BMP180;7865;50.918;4.510;2023-07-13T07:57:20;101215.00;;;23.60
15607;BMP180;7865;50.918;4.510;2023-07-13T08:02:42;101212.00;;;24.70
15607;BMP180;7865;50.918;4.510;2023-07-13T08:08:03;101222.00;;;23.90
15607;BMP180;7865;50.918;4.510;2023-07-13T08:13:05;101214.00;;;23.60
15607;BMP180;7865;50.918;4.510;2023-07-13T08:18:09;101207.00;;;24.50
15607;BMP180;7865;50.918;4.510;2023-07-13T08:23:10;101212.00;;;24.10
15607;BMP180;7865;50.918;4.510;2023-07-13T08:28:12;101216.00;;;24.60
15607;BMP180;7865;50.918;4.510;2023-07-13T08:33:13;101214.00;;;24.90
15607;BMP180;7865;50.918;4.510;2023-07-13T08:38:15;101223.00;;;24.30
15607;BMP180;7865;50.918;4.510;2023-07-13T08:43:22;101215.00;;;24.50
15607;BMP180;7865;50.918;4.510;2023-07-13T08:48:28;101213.00;;;25.60
15607;BMP180;7865;50.918;4.510;2023-07-13T08:53:48;101215.00;;;26.60
15607;BMP180;7865;50.918;4.510;2023-07-13T08:59:00;101222.00;;;26.40
15607;BMP180;7865;50.918;4.510;2023-07-13T09:04:10;101217.00;;;24.80
15607;BMP180;7865;50.918;4.510;2023-07-13T09:14:42;101211.00;;;27.20
15607;BMP180;7865;50.918;4.510;2023-07-13T09:19:49;101221.00;;;27.10
15607;BMP180;7865;50.918;4.510;2023-07-13T09:25:00;101205.00;;;26.60
15607;BMP180;7865;50.918;4.510;2023-07-13T09:30:17;101209.00;;;26.80
15607;BMP180;7865;50.918;4.510;2023-07-13T09:35:26;101212.00;;;28.30
15607;BMP180;7865;50.918;4.510;2023-07-13T09:45:45;101208.00;;;27.70
15607;BMP180;7865;50.918;4.510;2023-07-13T09:50:48;101216.00;;;29.80
15607;BMP180;7865;50.918;4.510;2023-07-13T09:55:50;101218.00;;;28.10
15607;BMP180;7865;50.918;4.510;2023-07-13T10:01:00;101225.00;;;27.40
15607;BMP180;7865;50.918;4.510;2023-07-13T10:06:18;101213.00;;;28.50
15607;BMP180;7865;50.918;4.510;2023-07-13T10:11:28;101220.00;;;28.70
15607;BMP180;7865;50.918;4.510;2023-07-13T10:16:32;101207.00;;;28.90
15607;BMP180;7865;50.918;4.510;2023-07-13T10:21:38;101223.00;;;30.70
15607;BMP180;7865;50.918;4.510;2023-07-13T10:26:47;101211.00;;;30.90
15607;BMP180;7865;50.918;4.510;2023-07-13T10:31:49;101217.00;;;31.70
15607;BMP180;7865;50.918;4.510;2023-07-13T10:36:52;101230.00;;;31.30
15607;BMP180;7865;50.918;4.510;2023-07-13T10:41:57;101231.00;;;29.40
15607;BMP180;7865;50.918;4.510;2023-07-13T10:47:08;101237.00;;;28.00
15607;BMP180;7865;50.918;4.510;2023-07-13T10:52:44;101243.00;;;26.50
15607;BMP180;7865;50.918;4.510;2023-07-13T10:57:47;101240.00;;;26.20
15607;BMP180;7865;50.918;4.510;2023-07-13T11:02:56;101235.00;;;26.00
15607;BMP180;7865;50.918;4.510;2023-07-13T11:08:31;101253.00;;;24.10
15607;BMP180;7865;50.918;4.510;2023-07-13T11:34:25;101236.00;;;24.50
15607;BMP180;7865;50.918;4.510;2023-07-13T11:39:32;101239.00;;;24.80
15607;BMP180;7865;50.918;4.510;2023-07-13T11:44:35;101239.00;;;25.70
15607;BMP180;7865;50.918;4.510;2023-07-13T11:49:44;101244.00;;;26.40
15607;BMP180;7865;50.918;4.510;2023-07-13T11:54:52;101247.00;;;25.10
15607;BMP180;7865;50.918;4.510;2023-07-13T11:59:58;101256.00;;;23.90
15607;BMP180;7865;50.918;4.510;2023-07-13T12:05:02;101286.00;;;22.00
15607;BMP180;7865;50.918;4.510;2023-07-13T12:15:30;101284.00;;;19.70
15607;BMP180;7865;50.918;4.510;2023-07-13T12:20:37;101297.00;;;19.50
15607;BMP180;7865;50.918;4.510;2023-07-13T12:25:39;101305.00;;;19.70
15607;BMP180;7865;50.918;4.510;2023-07-13T12:30:40;101306.00;;;19.40
15607;BMP180;7865;50.918;4.510;2023-07-13T12:35:46;101307.00;;;19.20
15607;BMP180;7865;50.918;4.510;2023-07-13T12:40:51;101332.00;;;18.80
15607;BMP180;7865;50.918;4.510;2023-07-13T12:45:58;101340.00;;;17.80
15607;BMP180;7865;50.918;4.510;2023-07-13T12:51:01;101342.00;;;17.60
15607;BMP180;7865;50.918;4.510;2023-07-13T12:56:03;101343.00;;;18.00
15607;BMP180;7865;50.918;4.510;2023-07-13T13:01:05;101329.00;;;18.30
15607;BMP180;7865;50.918;4.510;2023-07-13T13:11:21;101327.00;;;18.80
15607;BMP180;7865;50.918;4.510;2023-07-13T13:16:30;101326.00;;;19.40
15607;BMP180;7865;50.918;4.510;2023-07-13T13:21:35;101322.00;;;19.90
15607;BMP180;7865;50.918;4.510;2023-07-13T13:26:37;101319.00;;;20.40
15607;BMP180;7865;50.918;4.510;2023-07-13T13:31:38;101314.00;;;20.50
15607;BMP180;7865;50.918;4.510;2023-07-13T13:36:41;101308.00;;;20.20
15607;BMP180;7865;50.918;4.510;2023-07-13T13:41:42;101307.00;;;19.80
15607;BMP180;7865;50.918;4.510;2023-07-13T13:46:53;101306.00;;;19.90
15607;BMP180;7865;50.918;4.510;2023-07-13T13:51:55;101300.00;;;20.80
15607;BMP180;7865;50.918;4.510;2023-07-13T13:56:57;101289.00;;;22.50
15607;BMP180;7865;50.918;4.510;2023-07-13T14:01:59;101285.00;;;23.60
15607;BMP180;7865;50.918;4.510;2023-07-13T14:07:01;101281.00;;;25.00
15607;BMP180;7865;50.918;4.510;2023-07-13T14:12:04;101288.00;;;25.30
15607;BMP180;7865;50.918;4.510;2023-07-13T14:17:27;101290.00;;;25.80
15607;BMP180;7865;50.918;4.510;2023-07-13T14:22:29;101289.00;;;25.80
15607;BMP180;7865;50.918;4.510;2023-07-13T14:27:30;101276.00;;;25.80
15607;BMP180;7865;50.918;4.510;2023-07-13T14:32:31;101274.00;;;26.60
15607;BMP180;7865;50.918;4.510;2023-07-13T14:37:33;101260.00;;;27.10
15607;BMP180;7865;50.918;4.510;2023-07-13T14:42:35;101247.00;;;26.90
15607;BMP180;7865;50.918;4.510;2023-07-13T14:47:36;101249.00;;;27.10
15607;BMP180;7865;50.918;4.510;2023-07-13T14:52:38;101259.00;;;26.70
15607;BMP180;7865;50.918;4.510;2023-07-13T14:57:39;101253.00;;;26.10
15607;BMP180;7865;50.918;4.510;2023-07-13T15:02:43;101234.00;;;26.10
15607;BMP180;7865;50.918;4.510;2023-07-13T15:07:45;101240.00;;;26.40
15607;BMP180;7865;50.918;4.510;2023-07-13T15:12:46;101244.00;;;26.30
15607;BMP180;7865;50.918;4.510;2023-07-13T15:17:48;101241.00;;;26.90
15607;BMP180;7865;50.918;4.510;2023-07-13T15:22:50;101231.00;;;27.00
15607;BMP180;7865;50.918;4.510;2023-07-13T15:27:53;101231.00;;;27.00
15607;BMP180;7865;50.918;4.510;2023-07-13T15:32:56;101220.00;;;27.00
15607;BMP180;7865;50.918;4.510;2023-07-13T15:37:58;101216.00;;;28.10
15607;BMP180;7865;50.918;4.510;2023-07-13T15:43:00;101216.00;;;28.80
15607;BMP180;7865;50.918;4.510;2023-07-13T15:48:01;101216.00;;;26.60
15607;BMP180;7865;50.918;4.510;2023-07-13T15:53:02;101207.00;;;25.60
15607;BMP180;7865;50.918;4.510;2023-07-13T15:58:04;101206.00;;;25.50
15607;BMP180;7865;50.918;4.510;2023-07-13T16:03:05;101205.00;;;25.50
15607;BMP180;7865;50.918;4.510;2023-07-13T16:08:20;101209.00;;;25.00
15607;BMP180;7865;50.918;4.510;2023-07-13T16:13:23;101207.00;;;24.90
15607;BMP180;7865;50.918;4.510;2023-07-13T16:18:25;101211.00;;;24.80
15607;BMP180;7865;50.918;4.510;2023-07-13T16:23:30;101202.00;;;24.50
15607;BMP180;7865;50.918;4.510;2023-07-13T16:28:32;101200.00;;;25.10
15607;BMP180;7865;50.918;4.510;2023-07-13T16:33:35;101199.00;;;25.20
15607;BMP180;7865;50.918;4.510;2023-07-13T16:38:36;101208.00;;;24.70
15607;BMP180;7865;50.918;4.510;2023-07-13T16:43:38;101205.00;;;24.40
15607;BMP180;7865;50.918;4.510;2023-07-13T16:48:41;101201.00;;;24.60
15607;BMP180;7865;50.918;4.510;2023-07-13T16:53:42;101203.00;;;24.60
15607;BMP180;7865;50.918;4.510;2023-07-13T16:58:45;101190.00;;;24.60
15607;BMP180;7865;50.918;4.510;2023-07-13T17:03:47;101199.00;;;24.70
15607;BMP180;7865;50.918;4.510;2023-07-13T17:08:49;101200.00;;;24.50
15607;BMP180;7865;50.918;4.510;2023-07-13T17:13:54;101199.00;;;24.00
15607;BMP180;7865;50.918;4.510;2023-07-13T17:18:55;101200.00;;;24.00
15607;BMP180;7865;50.918;4.510;2023-07-13T17:23:58;101197.00;;;24.20
15607;BMP180;7865;50.918;4.510;2023-07-13T17:28:59;101198.00;;;24.20
15607;BMP180;7865;50.918;4.510;2023-07-13T17:34:02;101207.00;;;24.00
15607;BMP180;7865;50.918;4.510;2023-07-13T17:39:16;101204.00;;;23.80
15607;BMP180;7865;50.918;4.510;2023-07-13T17:44:18;101202.00;;;23.70
15607;BMP180;7865;50.918;4.510;2023-07-13T17:49:23;101200.00;;;23.80
15607;BMP180;7865;50.918;4.510;2023-07-13T17:54:32;101197.00;;;23.80
15607;BMP180;7865;50.918;4.510;2023-07-13T17:59:34;101203.00;;;23.70
15607;BMP180;7865;50.918;4.510;2023-07-13T18:04:35;101215.00;;;23.60
15607;BMP180;7865;50.918;4.510;2023-07-13T18:09:38;101209.00;;;23.50
15607;BMP180;7865;50.918;4.510;2023-07-13T18:14:41;101211.00;;;23.00
15607;BMP180;7865;50.918;4.510;2023-07-13T18:19:44;101220.00;;;22.60
15607;BMP180;7865;50.918;4.510;2023-07-13T18:24:47;101223.00;;;22.40
15607;BMP180;7865;50.918;4.510;2023-07-13T18:29:48;101217.00;;;22.40
15607;BMP180;7865;50.918;4.510;2023-07-13T18:34:50;101216.00;;;22.40
15607;BMP180;7865;50.918;4.510;2023-07-13T18:39:53;101227.00;;;22.10
15607;BMP180;7865;50.918;4.510;2023-07-13T18:44:55;101225.00;;;21.90
15607;BMP180;7865;50.918;4.510;2023-07-13T18:49:57;101238.00;;;21.70
15607;BMP180;7865;50.918;4.510;2023-07-13T18:54:59;101235.00;;;21.60
15607;BMP180;7865;50.918;4.510;2023-07-13T19:00:04;101232.00;;;21.40
15607;BMP180;7865;50.918;4.510;2023-07-13T19:05:17;101231.00;;;21.20
15607;BMP180;7865;50.918;4.510;2023-07-13T19:10:22;101238.00;;;20.90
15607;BMP180;7865;50.918;4.510;2023-07-13T19:15:26;101239.00;;;20.60
15607;BMP180;7865;50.918;4.510;2023-07-13T19:20:31;101240.00;;;20.60
15607;BMP180;7865;50.918;4.510;2023-07-13T19:25:32;101243.00;;;20.50
15607;BMP180;7865;50.918;4.510;2023-07-13T19:30:34;101248.00;;;20.50
15607;BMP180;7865;50.918;4.510;2023-07-13T19:35:36;101251.00;;;20.50
15607;BMP180;7865;50.918;4.510;2023-07-13T19:40:37;101255.00;;;20.40
15607;BMP180;7865;50.918;4.510;2023-07-13T19:45:39;101249.00;;;20.30
15607;BMP180;7865;50.918;4.510;2023-07-13T19:50:40;101261.00;;;20.30
15607;BMP180;7865;50.918;4.510;2023-07-13T19:55:42;101264.00;;;20.20
15607;BMP180;7865;50.918;4.510;2023-07-13T20:00:44;101268.00;;;20.20
15607;BMP180;7865;50.918;4.510;2023-07-13T20:05:45;101272.00;;;20.20
15607;BMP180;7865;50.918;4.510;2023-07-13T20:10:48;101288.00;;;20.10
15607;BMP180;7865;50.918;4.510;2023-07-13T20:15:52;101298.00;;;20.00
15607;BMP180;7865;50.918;4.510;2023-07-13T20:20:54;101297.00;;;20.00
15607;BMP180;7865;50.918;4.510;2023-07-13T20:25:55;101296.00;;;19.90
15607;BMP180;7865;50.918;4.510;2023-07-13T20:30:58;101297.00;;;19.90
15607;BMP180;7865;50.918;4.510;2023-07-13T20:36:05;101301.00;;;19.80
15607;BMP180;7865;50.918;4.510;2023-07-13T20:41:11;101298.00;;;19.80
15607;BMP180;7865;50.918;4.510;2023-07-13T20:46:16;101313.00;;;19.70
15607;BMP180;7865;50.918;4.510;2023-07-13T20:51:18;101310.00;;;19.70
15607;BMP180;7865;50.918;4.510;2023-07-13T20:56:22;101306.00;;;19.60
15607;BMP180;7865;50.918;4.510;2023-07-13T21:01:33;101307.00;;;19.50
15607;BMP180;7865;50.918;4.510;2023-07-13T21:06:35;101313.00;;;19.40
15607;BMP180;7865;50.918;4.510;2023-07-13T21:11:37;101310.00;;;19.30
15607;BMP180;7865;50.918;4.510;2023-07-13T21:16:38;101302.00;;;19.10
15607;BMP180;7865;50.918;4.510;2023-07-13T21:21:50;101307.00;;;19.00
15607;BMP180;7865;50.918;4.510;2023-07-13T21:26:52;101310.00;;;18.80
15607;BMP180;7865;50.918;4.510;2023-07-13T21:31:53;101317.00;;;18.60
15607;BMP180;7865;50.918;4.510;2023-07-13T21:36:55;101319.00;;;18.50
15607;BMP180;7865;50.918;4.510;2023-07-13T21:41:59;101319.00;;;18.40
15607;BMP180;7865;50.918;4.510;2023-07-13T21:47:02;101329.00;;;18.30
15607;BMP180;7865;50.918;4.510;2023-07-13T21:52:16;101332.00;;;18.30
15607;BMP180;7865;50.918;4.510;2023-07-13T21:57:18;101331.00;;;18.20
15607;BMP180;7865;50.918;4.510;2023-07-13T22:02:19;101329.00;;;18.30
15607;BMP180;7865;50.918;4.510;2023-07-13T22:07:21;101330.00;;;18.30
15607;BMP180;7865;50.918;4.510;2023-07-13T22:12:22;101329.00;;;18.30
15607;BMP180;7865;50.918;4.510;2023-07-13T22:17:23;101330.00;;;18.30
15607;BMP180;7865;50.918;4.510;2023-07-13T22:22:25;101323.00;;;18.30
15607;BMP180;7865;50.918;4.510;2023-07-13T22:27:28;101323.00;;;18.30
15607;BMP180;7865;50.918;4.510;2023-07-13T22:32:30;101323.00;;;18.20
15607;BMP180;7865;50.918;4.510;2023-07-13T22:37:31;101319.00;;;18.10
15607;BMP180;7865;50.918;4.510;2023-07-13T22:42:32;101319.00;;;17.90
15607;BMP180;7865;50.918;4.510;2023-07-13T22:47:34;101319.00;;;17.80
15607;BMP180;7865;50.918;4.510;2023-07-13T22:52:35;101316.00;;;17.70
15607;BMP180;7865;50.918;4.510;2023-07-13T22:57:37;101310.00;;;17.60
15607;BMP180;7865;50.918;4.510;2023-07-13T23:02:38;101312.00;;;17.40
15607;BMP180;7865;50.918;4.510;2023-07-13T23:07:40;101306.00;;;17.30
15607;BMP180;7865;50.918;4.510;2023-07-13T23:12:41;101298.00;;;17.30
15607;BMP180;7865;50.918;4.510;2023-07-13T23:17:48;101290.00;;;17.30
15607;BMP180;7865;50.918;4.510;2023-07-13T23:22:50;101296.00;;;17.30
15607;BMP180;7865;50.918;4.510;2023-07-13T23:27:52;101294.00;;;17.20
15607;BMP180;7865;50.918;4.510;2023-07-13T23:32:59;101298.00;;;17.10
15607;BMP180;7865;50.918;4.510;2023-07-13T23:38:01;101286.00;;;17.00
15607;BMP180;7865;50.918;4.510;2023-07-13T23:43:02;101288.00;;;17.00
15607;BMP180;7865;50.918;4.510;2023-07-13T23:48:08;101293.00;;;16.90
15607;BMP180;7865;50.918;4.510;2023-07-13T23:53:12;101291.00;;;16.80
15607;BMP180;7865;50.918;4.510;2023-07-13T23:58:14;101282.00;;;16.80
